createdAt,value
2019-05-28T00:00:32.225Z,11.17
2019-05-28T00:02:33.885Z,10.27
2019-05-28T00:04:35.565Z,11.17
2019-05-28T00:06:37.240Z,10.20
2019-05-28T00:08:39.242Z,11.77
2019-05-28T00:10:40.922Z,9.13
2019-05-28T00:12:42.590Z,7.80
2019-05-28T00:14:44.262Z,6.73
2019-05-28T00:16:46.272Z,11.63
2019-05-28T00:18:47.930Z,6.43
2019-05-28T00:20:49.877Z,7.30
2019-05-28T00:22:51.825Z,7.70
2019-05-28T00:24:53.494Z,6.03
2019-05-28T00:26:55.148Z,8.40
2019-05-28T00:28:56.809Z,8.47
2019-05-28T00:30:58.553Z,6.73
2019-05-28T00:33:00.230Z,9.73
2019-05-28T00:35:01.911Z,6.07
2019-05-28T00:37:03.605Z,9.00
2019-05-28T00:39:06.501Z,10.13
2019-05-28T00:41:08.176Z,10.40
2019-05-28T00:43:10.189Z,6.67
2019-05-28T00:45:11.871Z,12.83
2019-05-28T00:47:13.545Z,9.10
2019-05-28T00:49:15.217Z,11.97
2019-05-28T00:51:17.212Z,7.10
2019-05-28T00:53:18.882Z,10.13
2019-05-28T00:55:20.567Z,7.07
2019-05-28T00:57:22.576Z,7.10
2019-05-28T00:59:24.241Z,12.57
2019-05-28T01:01:26.185Z,11.63
2019-05-28T01:03:27.849Z,16.63
2019-05-28T01:05:29.529Z,10.33
2019-05-28T01:07:31.197Z,10.00
2019-05-28T01:09:32.865Z,8.10
2019-05-28T01:11:34.857Z,7.70
2019-05-28T01:13:36.521Z,6.80
2019-05-28T01:15:38.465Z,11.63
2019-05-28T01:17:40.133Z,13.00
2019-05-28T01:19:41.815Z,10.00
2019-05-28T01:21:43.938Z,13.03
2019-05-28T01:23:45.602Z,12.80
2019-05-28T01:25:47.272Z,9.10
2019-05-28T01:27:48.941Z,11.63
2019-05-28T01:29:50.613Z,17.30
2019-05-28T01:31:52.283Z,13.07
2019-05-28T01:33:53.949Z,16.93
2019-05-28T01:35:55.629Z,11.37
2019-05-28T01:37:57.293Z,8.43
2019-05-28T01:39:58.965Z,9.30
2019-05-28T01:42:00.661Z,14.37
2019-05-28T01:44:02.627Z,14.00
2019-05-28T01:46:04.292Z,13.00
2019-05-28T01:48:05.973Z,12.73
2019-05-28T01:50:07.636Z,10.20
2019-05-28T01:52:09.301Z,21.30
2019-05-28T01:54:10.970Z,12.57
2019-05-28T01:56:12.647Z,16.23
2019-05-28T01:58:14.320Z,17.37
2019-05-28T02:00:16.121Z,10.83
2019-05-28T02:02:17.791Z,14.17
2019-05-28T02:04:19.452Z,10.50
2019-05-28T02:06:21.122Z,13.67
2019-05-28T02:08:22.789Z,15.27
2019-05-28T02:10:24.472Z,22.60
2019-05-28T02:12:26.141Z,12.00
2019-05-28T02:14:28.101Z,12.80
2019-05-28T02:16:30.041Z,16.70
2019-05-28T02:18:31.709Z,12.80
2019-05-28T02:20:33.461Z,15.90
2019-05-28T02:22:35.131Z,15.57
2019-05-28T02:24:36.801Z,16.07
2019-05-28T02:26:38.467Z,11.07
2019-05-28T02:28:40.133Z,17.13
2019-05-28T02:30:42.151Z,14.73
2019-05-28T02:32:43.831Z,10.20
2019-05-28T02:34:45.879Z,13.60
2019-05-28T02:36:47.554Z,22.53
2019-05-28T02:38:49.561Z,13.00
2019-05-28T02:40:51.246Z,14.77
2019-05-28T02:42:52.912Z,12.40
2019-05-28T02:44:54.840Z,14.30
2019-05-28T02:46:56.534Z,17.50
2019-05-28T02:48:58.517Z,16.43
2019-05-28T02:51:03.739Z,16.40
2019-05-28T02:53:05.461Z,14.00
2019-05-28T02:55:07.132Z,14.43
2019-05-28T02:57:08.809Z,8.77
2019-05-28T02:59:14.490Z,15.63
2019-05-28T03:01:16.170Z,9.63
2019-05-28T03:03:18.404Z,15.07
2019-05-28T03:05:20.078Z,14.43
2019-05-28T03:07:21.737Z,16.50
2019-05-28T03:09:24.333Z,11.20
2019-05-28T03:11:26.345Z,18.10
2019-05-28T03:13:28.096Z,18.00
2019-05-28T03:15:30.072Z,16.57
2019-05-28T03:17:32.117Z,13.10
2019-05-28T03:19:33.769Z,16.57
2019-05-28T03:21:35.509Z,18.27
2019-05-28T03:23:37.592Z,11.43
2019-05-28T03:25:39.253Z,13.90
2019-05-28T03:27:40.921Z,15.53
2019-05-28T03:29:42.606Z,22.20
2019-05-28T03:32:02.912Z,26.33
2019-05-28T03:33:47.850Z,23.67
2019-05-28T03:35:49.514Z,13.40
2019-05-28T03:37:51.216Z,22.93
2019-05-28T03:39:52.881Z,14.03
2019-05-28T03:41:54.564Z,19.40
2019-05-28T03:43:56.216Z,19.87
2019-05-28T03:45:57.890Z,12.27
2019-05-28T03:47:59.843Z,14.70
2019-05-28T03:50:01.655Z,18.90
2019-05-28T03:52:03.326Z,18.00
2019-05-28T03:54:05.053Z,12.80
2019-05-28T03:56:06.787Z,19.70
2019-05-28T03:58:08.814Z,14.40
2019-05-28T04:00:10.490Z,17.03
2019-05-28T04:02:23.061Z,15.43
2019-05-28T04:04:15.750Z,18.53
2019-05-28T04:06:17.417Z,16.10
2019-05-28T04:08:19.080Z,23.07
2019-05-28T04:10:21.078Z,13.60
2019-05-28T04:12:22.754Z,24.53
2019-05-28T04:14:24.426Z,12.10
2019-05-28T04:16:26.099Z,15.77
2019-05-28T04:18:27.777Z,15.73
2019-05-28T04:20:29.445Z,21.53
2019-05-28T04:22:31.216Z,15.23
2019-05-28T04:24:33.605Z,24.20
2019-05-28T04:26:35.279Z,13.77
2019-05-28T04:28:37.066Z,15.10
2019-05-28T04:30:38.737Z,20.93
2019-05-28T04:32:41.519Z,20.33
2019-05-28T04:34:43.406Z,23.50
2019-05-28T04:36:45.078Z,18.37
2019-05-28T04:38:46.756Z,17.40
2019-05-28T04:40:48.420Z,24.97
2019-05-28T04:42:50.389Z,20.37
2019-05-28T04:44:52.053Z,20.27
2019-05-28T04:46:53.728Z,13.93
2019-05-28T04:48:55.645Z,13.70
2019-05-28T04:50:57.301Z,16.00
2019-05-28T04:52:58.981Z,19.23
2019-05-28T04:55:00.913Z,17.37
2019-05-28T04:57:02.839Z,17.83
2019-05-28T04:59:04.761Z,12.90
2019-05-28T05:01:06.709Z,21.53
2019-05-28T05:03:08.388Z,17.60
2019-05-28T05:05:10.075Z,16.07
2019-05-28T05:07:11.846Z,19.80
2019-05-28T05:09:13.830Z,11.67
2019-05-28T05:11:15.533Z,16.13
2019-05-28T05:13:17.607Z,15.43
2019-05-28T05:15:19.272Z,12.63
2019-05-28T05:17:20.954Z,16.87
2019-05-28T05:19:22.718Z,20.27
2019-05-28T05:21:24.390Z,23.07
2019-05-28T05:23:26.380Z,14.00
2019-05-28T05:25:28.141Z,21.13
2019-05-28T05:27:29.901Z,18.23
2019-05-28T05:29:31.590Z,13.43
2019-05-28T05:31:33.448Z,18.90
2019-05-28T05:33:35.127Z,16.00
2019-05-28T05:35:37.049Z,11.80
2019-05-28T05:37:38.721Z,22.30
2019-05-28T05:39:40.400Z,18.60
2019-05-28T05:41:42.370Z,11.03
2019-05-28T05:43:44.045Z,18.87
2019-05-28T05:45:45.848Z,17.30
2019-05-28T05:47:47.622Z,18.10
2019-05-28T05:49:49.279Z,17.30
2019-05-28T05:51:50.954Z,16.37
2019-05-28T05:53:52.632Z,18.47
2019-05-28T05:56:13.974Z,14.93
2019-05-28T05:58:15.654Z,17.27
2019-05-28T06:00:17.313Z,17.33
2019-05-28T06:02:19.020Z,16.37
2019-05-28T06:04:20.766Z,16.03
2019-05-28T06:06:22.435Z,16.63
2019-05-28T06:08:24.215Z,12.37
2019-05-28T06:10:25.880Z,14.60
2019-05-28T06:12:27.874Z,10.90
2019-05-28T06:14:29.557Z,18.57
2019-05-28T06:16:31.233Z,12.60
2019-05-28T06:18:32.909Z,13.23
2019-05-28T06:20:34.579Z,11.87
2019-05-28T06:22:36.541Z,20.03
2019-05-28T06:24:38.476Z,12.63
2019-05-28T06:26:40.421Z,6.57
2019-05-28T06:28:42.108Z,14.10
2019-05-28T06:30:43.774Z,10.10
2019-05-28T06:32:45.442Z,9.43
2019-05-28T06:34:47.113Z,14.57
2019-05-28T06:36:49.130Z,14.43
2019-05-28T06:38:51.086Z,15.13
2019-05-28T06:40:52.754Z,13.23
2019-05-28T06:42:54.424Z,9.40
2019-05-28T06:44:56.178Z,10.70
2019-05-28T06:46:58.177Z,18.10
2019-05-28T06:48:59.871Z,11.60
2019-05-28T06:51:01.538Z,13.40
2019-05-28T06:53:03.197Z,14.87
2019-05-28T06:55:04.901Z,16.77
2019-05-28T06:57:21.921Z,8.33
2019-05-28T06:59:10.386Z,5.73
2019-05-28T07:01:12.146Z,8.07
2019-05-28T07:03:13.952Z,9.57
2019-05-28T07:05:15.632Z,9.83
2019-05-28T07:07:17.305Z,4.73
2019-05-28T07:09:18.977Z,8.90
2019-05-28T07:11:20.651Z,11.77
2019-05-28T07:13:22.313Z,9.20
2019-05-28T07:15:23.999Z,5.00
2019-05-28T07:17:25.664Z,10.50
2019-05-28T07:19:27.337Z,6.53
2019-05-28T07:21:29.072Z,7.17
2019-05-28T07:23:30.783Z,6.63
2019-05-28T07:25:32.572Z,9.13
2019-05-28T07:27:34.538Z,14.53
2019-05-28T07:29:36.219Z,9.30
2019-05-28T07:31:37.877Z,11.93
2019-05-28T07:33:39.549Z,8.00
2019-05-28T07:35:45.729Z,10.80
2019-05-28T07:37:44.791Z,9.07
2019-05-28T07:39:46.470Z,9.43
2019-05-28T07:41:48.138Z,5.63
2019-05-28T07:43:49.805Z,7.03
2019-05-28T07:45:51.494Z,12.80
2019-05-28T07:47:53.174Z,8.23
2019-05-28T07:49:54.849Z,7.97
2019-05-28T07:51:56.524Z,9.33
2019-05-28T07:53:58.285Z,8.80
2019-05-28T07:56:00.027Z,3.70
2019-05-28T07:58:01.866Z,10.27
2019-05-28T08:00:06.047Z,10.87
2019-05-28T08:02:08.189Z,6.17
2019-05-28T08:04:09.865Z,8.63
2019-05-28T08:06:11.541Z,12.60
2019-05-28T08:08:15.986Z,7.00
2019-05-28T08:10:17.730Z,5.07
2019-05-28T08:12:19.414Z,12.53
2019-05-28T08:14:21.429Z,7.20
2019-05-28T08:16:24.227Z,4.37
2019-05-28T08:18:26.571Z,6.50
2019-05-28T08:20:28.257Z,6.47
2019-05-28T08:22:41.566Z,5.97
2019-05-28T08:24:33.777Z,4.07
2019-05-28T08:26:35.736Z,5.97
2019-05-28T08:28:37.406Z,8.73
2019-05-28T08:30:39.077Z,6.57
2019-05-28T08:32:40.750Z,9.57
2019-05-28T08:34:42.433Z,10.60
2019-05-28T08:36:44.108Z,9.53
2019-05-28T08:38:45.780Z,6.03
2019-05-28T08:40:47.889Z,8.80
2019-05-28T08:42:52.054Z,4.20
2019-05-28T08:44:53.817Z,6.07
2019-05-28T08:46:55.496Z,7.83
2019-05-28T08:48:57.161Z,5.17
2019-05-28T08:50:58.848Z,11.13
2019-05-28T08:53:00.854Z,5.30
2019-05-28T08:55:02.691Z,5.27
2019-05-28T09:00:39.624Z,2.57
2019-05-28T09:05:57.345Z,6.60
2019-05-28T09:07:59.012Z,7.03
2019-05-28T09:10:00.689Z,7.90
2019-05-28T09:12:02.357Z,7.40
2019-05-28T09:14:04.026Z,5.77
2019-05-28T09:16:05.704Z,3.90
2019-05-28T09:18:07.523Z,5.60
2019-05-28T09:20:09.415Z,7.80
2019-05-28T09:22:24.681Z,5.73
2019-05-28T09:24:15.449Z,8.80
2019-05-28T09:26:17.114Z,4.90
2019-05-28T09:28:29.057Z,8.60
2019-05-28T09:30:22.584Z,7.77
2019-05-28T09:32:24.266Z,6.60
2019-05-28T09:34:26.035Z,7.03
2019-05-28T09:36:27.709Z,5.47
2019-05-28T09:38:29.377Z,13.30
2019-05-28T09:40:48.562Z,5.63
2019-05-28T09:42:34.941Z,4.97
2019-05-28T09:44:36.619Z,13.20
2019-05-28T09:46:38.306Z,6.73
2019-05-28T09:48:39.978Z,6.70
2019-05-28T09:50:41.665Z,3.40
2019-05-28T09:52:54.613Z,6.40
2019-05-28T09:54:46.909Z,9.50
2019-05-28T09:56:48.598Z,3.47
2019-05-28T09:58:50.461Z,2.50
2019-05-28T10:00:58.099Z,9.07
2019-05-28T10:02:57.293Z,7.50
2019-05-28T10:04:59.234Z,7.63
2019-05-28T10:07:01.000Z,6.20
2019-05-28T10:09:04.200Z,4.87
2019-05-28T10:11:05.869Z,5.00
2019-05-28T10:13:07.529Z,8.23
2019-05-28T10:15:09.197Z,10.50
2019-05-28T10:17:11.114Z,11.03
2019-05-28T10:19:12.773Z,7.07
2019-05-28T10:21:18.812Z,3.90
2019-05-28T10:23:18.025Z,4.50
2019-05-28T10:25:19.766Z,6.53
2019-05-28T10:27:21.807Z,9.20
2019-05-28T10:29:23.958Z,5.10
2019-05-28T10:31:25.638Z,5.20
2019-05-28T10:33:27.304Z,5.43
2019-05-28T10:35:29.169Z,8.33
2019-05-28T10:37:30.850Z,6.43
2019-05-28T10:39:32.517Z,7.33
2019-05-28T10:41:34.199Z,6.30
2019-05-28T10:43:36.149Z,4.77
2019-05-28T10:45:37.852Z,2.50
2019-05-28T10:47:39.600Z,6.93
2019-05-28T10:49:41.269Z,5.40
2019-05-28T10:51:42.954Z,8.03
2019-05-28T10:53:44.614Z,7.63
2019-05-28T10:55:46.294Z,5.30
2019-05-28T10:57:47.962Z,7.20
2019-05-28T10:59:49.629Z,13.60
2019-05-28T11:01:51.414Z,5.80
2019-05-28T11:03:53.141Z,5.20
2019-05-28T11:05:54.825Z,4.30
2019-05-28T11:07:56.789Z,7.00
2019-05-28T11:09:58.465Z,2.93
2019-05-28T11:12:00.217Z,3.87
2019-05-28T11:14:01.881Z,5.47
2019-05-28T11:16:04.243Z,7.60
2019-05-28T11:18:06.065Z,8.83
2019-05-28T11:20:08.450Z,5.73
2019-05-28T11:22:10.122Z,8.47
2019-05-28T11:24:11.793Z,10.23
2019-05-28T11:26:13.477Z,7.33
2019-05-28T11:28:15.151Z,5.77
2019-05-28T11:30:16.814Z,6.70
2019-05-28T11:32:18.494Z,5.77
2019-05-28T11:34:20.157Z,7.20
2019-05-28T11:36:22.077Z,9.27
2019-05-28T11:38:23.732Z,7.77
2019-05-28T11:40:25.397Z,5.60
2019-05-28T11:42:27.339Z,6.00
2019-05-28T11:44:29.012Z,11.03
2019-05-28T11:46:30.697Z,7.13
2019-05-28T11:48:32.373Z,5.83
2019-05-28T11:50:34.079Z,6.40
2019-05-28T11:52:35.885Z,9.00
2019-05-28T11:54:37.633Z,5.03
2019-05-28T11:56:39.320Z,8.07
2019-05-28T11:58:41.069Z,5.70
2019-05-28T12:00:42.953Z,7.30
2019-05-28T12:02:44.641Z,9.47
2019-05-28T12:04:46.401Z,7.10
2019-05-28T12:06:48.086Z,6.00
2019-05-28T12:08:49.751Z,7.03
2019-05-28T12:10:51.415Z,4.70
2019-05-28T12:12:53.076Z,7.47
2019-05-28T12:14:54.741Z,8.53
2019-05-28T12:16:56.745Z,8.90
2019-05-28T12:18:58.581Z,10.33
2019-05-28T12:21:00.582Z,5.67
2019-05-28T12:23:11.403Z,5.90
2019-05-28T12:25:05.852Z,6.30
2019-05-28T12:27:07.524Z,3.60
2019-05-28T12:29:09.193Z,3.23
2019-05-28T12:31:10.870Z,4.80
2019-05-28T12:33:12.547Z,5.43
2019-05-28T12:35:27.450Z,4.43
2019-05-28T12:37:17.786Z,4.50
2019-05-28T12:39:19.454Z,3.63
2019-05-28T12:41:21.121Z,7.20
2019-05-28T12:43:22.790Z,6.70
2019-05-28T12:45:35.162Z,5.13
2019-05-28T12:47:28.050Z,8.30
2019-05-28T12:49:29.712Z,5.03
2019-05-28T12:51:31.793Z,7.87
2019-05-28T12:53:49.284Z,3.43
2019-05-28T12:55:37.070Z,3.43
2019-05-28T12:57:38.756Z,4.57
2019-05-28T12:59:40.425Z,2.83
2019-05-28T13:01:42.421Z,3.63
2019-05-28T13:03:44.188Z,6.83
2019-05-28T13:05:45.850Z,4.73
2019-05-28T13:08:06.260Z,4.70
2019-05-28T13:09:51.106Z,2.93
2019-05-28T13:11:52.810Z,3.10
2019-05-28T13:13:54.861Z,3.40
2019-05-28T13:15:56.530Z,5.03
2019-05-28T13:17:58.215Z,6.47
2019-05-28T13:19:59.977Z,4.23
2019-05-28T13:22:01.642Z,4.83
2019-05-28T13:24:03.324Z,3.80
2019-05-28T13:26:04.991Z,4.90
2019-05-28T13:28:06.665Z,7.70
2019-05-28T13:30:08.625Z,6.70
2019-05-28T13:32:10.870Z,7.30
2019-05-28T13:34:12.528Z,3.93
2019-05-28T13:36:14.190Z,5.73
2019-05-28T13:38:26.322Z,3.63
2019-05-28T13:40:19.445Z,4.13
2019-05-28T13:42:21.123Z,3.47
2019-05-28T13:44:22.789Z,5.00
2019-05-28T13:46:24.487Z,8.00
2019-05-28T13:48:26.253Z,7.77
2019-05-28T13:50:29.509Z,2.20
2019-05-28T13:52:31.577Z,4.37
2019-05-28T13:54:33.537Z,5.47
2019-05-28T13:56:35.204Z,3.13
2019-05-28T13:58:36.894Z,4.43
2019-05-28T14:00:38.556Z,6.70
2019-05-28T14:02:40.242Z,3.53
2019-05-28T14:04:42.209Z,3.23
2019-05-28T14:06:44.776Z,6.70
2019-05-28T14:08:47.625Z,3.47
2019-05-28T14:10:49.443Z,4.80
2019-05-28T14:12:51.169Z,5.70
2019-05-28T14:14:53.083Z,6.30
2019-05-28T14:16:54.745Z,5.90
2019-05-28T14:18:56.428Z,3.00
2019-05-28T14:20:58.101Z,4.97
2019-05-28T14:22:59.778Z,6.83
2019-05-28T14:25:01.491Z,5.17
2019-05-28T14:27:03.228Z,4.87
2019-05-28T14:29:04.997Z,12.57
2019-05-28T14:31:06.986Z,11.03
2019-05-28T14:33:08.669Z,3.73
2019-05-28T14:35:10.340Z,4.47
2019-05-28T14:37:12.337Z,5.47
2019-05-28T14:39:14.011Z,8.87
2019-05-28T14:41:15.774Z,6.20
2019-05-28T14:43:17.837Z,9.00
2019-05-28T14:45:19.602Z,10.73
2019-05-28T14:47:21.621Z,7.13
2019-05-28T14:49:23.284Z,7.93
2019-05-28T14:51:24.955Z,3.43
2019-05-28T14:53:26.634Z,4.00
2019-05-28T14:55:28.306Z,6.37
2019-05-28T14:57:29.991Z,5.00
2019-05-28T14:59:31.937Z,7.00
2019-05-28T15:01:33.621Z,7.67
2019-05-28T15:03:35.297Z,9.63
2019-05-28T15:05:36.962Z,6.30
2019-05-28T15:07:38.652Z,3.23
2019-05-28T15:09:40.446Z,8.73
2019-05-28T15:11:42.205Z,3.87
2019-05-28T15:13:43.880Z,5.03
2019-05-28T15:15:45.545Z,2.30
2019-05-28T15:17:47.215Z,3.67
2019-05-28T15:19:48.892Z,3.27
2019-05-28T15:21:50.567Z,4.40
2019-05-28T15:23:52.262Z,2.53
2019-05-28T15:25:54.029Z,5.73
2019-05-28T15:27:55.704Z,3.27
2019-05-28T15:29:57.396Z,3.73
2019-05-28T15:31:59.150Z,5.30
2019-05-28T15:34:00.821Z,4.90
2019-05-28T15:36:02.506Z,5.77
2019-05-28T15:38:04.269Z,5.37
2019-05-28T15:40:06.245Z,4.03
2019-05-28T15:42:08.033Z,5.03
2019-05-28T15:44:09.816Z,6.80
2019-05-28T15:46:11.486Z,4.67
2019-05-28T15:48:13.154Z,5.60
2019-05-28T15:50:14.825Z,2.70
2019-05-28T15:52:16.498Z,7.43
2019-05-28T15:54:18.491Z,8.23
2019-05-28T15:56:20.154Z,7.87
2019-05-28T15:58:22.093Z,5.97
2019-05-28T16:00:23.777Z,6.00
2019-05-28T16:02:25.442Z,7.17
2019-05-28T16:04:27.109Z,11.50
2019-05-28T16:06:28.776Z,5.03
2019-05-28T16:08:30.441Z,10.37
2019-05-28T16:10:32.122Z,10.63
2019-05-28T16:12:34.067Z,3.07
2019-05-28T16:14:35.754Z,4.80
2019-05-28T16:16:37.426Z,9.50
2019-05-28T16:18:39.093Z,5.00
2019-05-28T16:20:40.769Z,8.40
2019-05-28T16:22:42.437Z,5.10
2019-05-28T16:24:44.118Z,7.97
2019-05-28T16:26:45.786Z,5.17
2019-05-28T16:28:47.461Z,6.57
2019-05-28T16:30:49.139Z,5.53
2019-05-28T16:32:50.807Z,6.50
2019-05-28T16:34:52.488Z,8.93
2019-05-28T16:36:54.154Z,9.40
2019-05-28T16:38:55.832Z,7.50
2019-05-28T16:40:57.608Z,3.97
2019-05-28T16:42:59.274Z,6.47
2019-05-28T16:45:00.958Z,10.77
2019-05-28T16:47:16.157Z,19.03
2019-05-28T16:49:06.262Z,5.10
2019-05-28T16:51:07.937Z,3.40
2019-05-28T16:53:09.601Z,5.77
2019-05-28T16:55:11.281Z,3.50
2019-05-28T16:57:12.955Z,2.90
2019-05-28T16:59:14.626Z,4.00
2019-05-28T17:01:22.440Z,6.47
2019-05-28T17:03:20.387Z,6.43
2019-05-28T17:05:22.068Z,5.87
2019-05-28T17:07:23.729Z,8.77
2019-05-28T17:09:25.386Z,12.00
2019-05-28T17:11:28.366Z,3.27
2019-05-28T17:13:31.101Z,6.80
2019-05-28T17:15:35.133Z,3.70
2019-05-28T17:17:36.795Z,11.27
2019-05-28T17:19:39.429Z,3.83
2019-05-28T17:21:41.101Z,7.73
2019-05-28T17:23:42.769Z,7.60
2019-05-28T17:25:44.446Z,4.03
2019-05-28T17:27:46.117Z,5.23
2019-05-28T17:29:50.570Z,10.40
2019-05-28T17:31:51.646Z,7.00
2019-05-28T17:33:53.313Z,3.80
2019-05-28T17:35:57.416Z,10.03
2019-05-28T17:37:58.564Z,8.10
2019-05-28T17:40:00.250Z,4.50
2019-05-28T17:42:01.916Z,11.30
2019-05-28T17:44:03.874Z,5.60
2019-05-28T17:46:05.550Z,7.83
2019-05-28T17:48:07.269Z,5.87
2019-05-28T17:50:09.137Z,4.13
2019-05-28T17:52:10.806Z,2.30
2019-05-28T17:54:12.474Z,9.13
2019-05-28T17:56:14.157Z,5.53
2019-05-28T17:58:15.821Z,18.03
2019-05-28T18:00:17.801Z,4.13
2019-05-28T18:02:19.811Z,7.63
2019-05-28T18:04:21.530Z,7.93
2019-05-28T18:06:23.209Z,5.60
2019-05-28T18:08:24.925Z,11.07
2019-05-28T18:10:26.607Z,10.60
2019-05-28T18:12:28.273Z,11.23
2019-05-28T18:14:29.945Z,6.27
2019-05-28T18:16:31.630Z,3.80
2019-05-28T18:18:33.292Z,8.87
2019-05-28T18:20:34.970Z,5.53
2019-05-28T18:22:36.650Z,4.50
2019-05-28T18:24:38.650Z,3.50
2019-05-28T18:26:40.334Z,8.30
2019-05-28T18:28:42.001Z,5.80
2019-05-28T18:30:43.676Z,3.17
2019-05-28T18:32:45.669Z,4.77
2019-05-28T18:34:47.350Z,5.00
2019-05-28T18:36:49.022Z,9.60
2019-05-28T18:38:50.694Z,4.00
2019-05-28T18:40:52.384Z,14.03
2019-05-28T18:42:54.834Z,6.43
2019-05-28T18:44:57.122Z,8.87
2019-05-28T18:46:58.814Z,14.00
2019-05-28T18:49:00.819Z,14.83
2019-05-28T18:51:02.497Z,4.30
2019-05-28T18:53:04.165Z,3.73
2019-05-28T18:55:05.962Z,6.10
2019-05-28T18:57:07.673Z,6.30
2019-05-28T18:59:09.712Z,4.77
2019-05-28T19:01:11.488Z,9.97
2019-05-28T19:03:13.468Z,9.60
2019-05-28T19:05:15.153Z,4.57
2019-05-28T19:07:16.852Z,7.70
2019-05-28T19:09:18.524Z,5.17
2019-05-28T19:11:20.205Z,5.33
2019-05-28T19:13:21.869Z,4.33
2019-05-28T19:15:23.550Z,4.20
2019-05-28T19:17:25.365Z,7.90
2019-05-28T19:19:27.275Z,4.77
2019-05-28T19:21:28.948Z,5.00
2019-05-28T19:23:30.629Z,7.97
2019-05-28T19:25:32.301Z,4.20
2019-05-28T19:27:35.588Z,7.53
2019-05-28T19:29:37.554Z,8.40
2019-05-28T19:31:39.329Z,5.67
2019-05-28T19:33:41.341Z,8.90
2019-05-28T19:35:43.346Z,5.07
2019-05-28T19:37:45.023Z,4.83
2019-05-28T19:39:46.691Z,9.00
2019-05-28T19:41:54.105Z,5.00
2019-05-28T19:43:51.991Z,2.93
2019-05-28T19:45:53.733Z,5.87
2019-05-28T19:47:55.693Z,2.40
2019-05-28T19:49:57.360Z,3.17
2019-05-28T19:51:59.034Z,5.60
2019-05-28T19:54:01.253Z,7.00
2019-05-28T19:56:02.937Z,5.03
2019-05-28T19:58:04.717Z,5.80
2019-05-28T20:00:07.498Z,4.43
2019-05-28T20:02:09.169Z,6.90
2019-05-28T20:04:10.833Z,5.90
2019-05-28T20:06:12.513Z,5.27
2019-05-28T20:08:14.194Z,4.73
2019-05-28T20:10:15.952Z,6.03
2019-05-28T20:12:17.958Z,10.13
2019-05-28T20:14:19.622Z,6.07
2019-05-28T20:16:21.594Z,4.40
2019-05-28T20:18:26.641Z,4.20
2019-05-28T20:20:26.858Z,4.13
2019-05-28T20:22:28.533Z,3.60
2019-05-28T20:24:30.202Z,2.67
2019-05-28T20:26:31.882Z,4.70
2019-05-28T20:28:33.578Z,5.90
2019-05-28T20:30:35.333Z,6.30
2019-05-28T20:32:37.009Z,3.07
2019-05-28T20:34:38.678Z,3.60
2019-05-28T20:36:40.352Z,2.53
2019-05-28T20:38:42.029Z,6.67
2019-05-28T20:40:43.706Z,6.53
2019-05-28T20:42:45.482Z,2.80
2019-05-28T20:44:47.162Z,7.97
2019-05-28T20:46:49.233Z,9.23
2019-05-28T20:48:50.901Z,3.60
2019-05-28T20:51:07.047Z,12.50
2019-05-28T20:52:56.442Z,3.87
2019-05-28T20:54:59.140Z,5.10
2019-05-28T20:57:01.091Z,8.93
2019-05-28T20:59:02.754Z,12.73
2019-05-28T21:01:04.439Z,4.03
2019-05-28T21:03:06.141Z,4.83
2019-05-28T21:05:07.909Z,3.87
2019-05-28T21:07:09.593Z,2.97
2019-05-28T21:09:13.010Z,1.80
2019-05-28T21:11:14.821Z,7.90
2019-05-28T21:13:16.933Z,10.63
2019-05-28T21:15:19.221Z,7.80
2019-05-28T21:17:21.153Z,2.60
2019-05-28T21:19:23.107Z,8.43
2019-05-28T21:21:24.870Z,2.97
2019-05-28T21:23:26.549Z,4.57
2019-05-28T21:25:28.221Z,3.37
2019-05-28T21:27:29.992Z,6.93
2019-05-28T21:29:32.040Z,5.27
2019-05-28T21:31:33.794Z,7.07
2019-05-28T21:33:35.481Z,5.23
2019-05-28T21:35:37.149Z,3.73
2019-05-28T21:37:39.145Z,6.93
2019-05-28T21:39:41.085Z,4.17
2019-05-28T21:41:42.764Z,3.50
2019-05-28T21:43:44.445Z,3.33
2019-05-28T21:45:46.117Z,12.70
2019-05-28T21:47:48.106Z,5.83
2019-05-28T21:49:49.774Z,3.77
2019-05-28T21:51:52.662Z,3.10
2019-05-28T21:53:54.792Z,5.30
2019-05-28T21:55:57.222Z,2.93
2019-05-28T21:57:59.880Z,5.67
2019-05-28T22:00:02.346Z,7.17
2019-05-28T22:02:04.794Z,6.13
2019-05-28T22:04:07.696Z,8.60
2019-05-28T22:06:09.765Z,8.63
2019-05-28T22:08:11.445Z,6.33
2019-05-28T22:10:13.113Z,3.70
2019-05-28T22:12:14.785Z,1.57
2019-05-28T22:14:16.457Z,5.90
2019-05-28T22:16:18.120Z,3.00
2019-05-28T22:18:19.809Z,2.47
2019-05-28T22:20:21.472Z,13.30
2019-05-28T22:22:23.147Z,2.23
2019-05-28T22:24:24.822Z,7.20
2019-05-28T22:26:26.489Z,4.30
2019-05-28T22:28:28.264Z,2.43
2019-05-28T22:30:29.942Z,4.47
2019-05-28T22:32:31.621Z,9.87
2019-05-28T22:34:33.293Z,4.43
2019-05-28T22:36:35.228Z,4.13
2019-05-28T22:38:36.910Z,1.63
2019-05-28T22:40:38.565Z,6.67
2019-05-28T22:42:40.554Z,5.80
2019-05-28T22:44:42.234Z,2.50
2019-05-28T22:46:44.394Z,2.53
2019-05-28T22:48:46.369Z,4.20
2019-05-28T22:50:48.041Z,5.27
2019-05-28T22:52:49.825Z,3.33
2019-05-28T22:54:51.833Z,3.87
2019-05-28T22:56:53.501Z,2.50
2019-05-28T22:58:55.550Z,3.83
2019-05-28T23:00:58.351Z,4.87
2019-05-28T23:03:00.889Z,2.07
2019-05-28T23:05:03.205Z,6.67
2019-05-28T23:07:05.443Z,5.03
2019-05-28T23:09:07.762Z,5.57
2019-05-28T23:11:09.909Z,6.60
2019-05-28T23:13:11.712Z,7.00
2019-05-28T23:15:14.968Z,2.40
2019-05-28T23:17:16.643Z,7.90
2019-05-28T23:19:18.317Z,2.80
2019-05-28T23:21:20.481Z,6.20
2019-05-28T23:23:22.437Z,7.93
2019-05-28T23:25:24.100Z,5.47
2019-05-28T23:27:25.775Z,6.63
2019-05-28T23:29:27.696Z,5.83
2019-05-28T23:31:29.365Z,6.53
2019-05-28T23:33:31.034Z,3.03
2019-05-28T23:35:32.700Z,4.53
2019-05-28T23:37:34.395Z,2.97
2019-05-28T23:39:36.072Z,5.90
2019-05-28T23:41:37.742Z,16.87
2019-05-28T23:43:39.418Z,2.60
2019-05-28T23:45:41.277Z,9.47
2019-05-28T23:47:42.954Z,3.30
2019-05-28T23:49:44.634Z,2.23
2019-05-28T23:51:46.297Z,6.90
2019-05-28T23:53:48.245Z,6.43
2019-05-28T23:55:49.896Z,4.53
2019-05-28T23:57:51.569Z,3.73
2019-05-28T23:59:53.305Z,2.40
